createdAt,value
2023-09-23T00:00:28.995Z,14.24
2023-09-23T00:05:54.977Z,14.18
2023-09-23T00:11:17.333Z,14.19
2023-09-23T00:16:39.886Z,14.16
2023-09-23T00:22:03.742Z,14.20
2023-09-23T00:27:27.795Z,14.22
2023-09-23T00:32:50.251Z,14.16
2023-09-23T00:38:13.658Z,14.13
2023-09-23T00:43:36.242Z,14.11
2023-09-23T00:49:00.712Z,14.09
2023-09-23T00:54:23.108Z,14.11
2023-09-23T00:59:45.787Z,14.17
2023-09-23T01:05:09.731Z,14.19
2023-09-23T01:10:32.770Z,14.16
2023-09-23T01:15:55.145Z,14.12
2023-09-23T01:21:17.495Z,14.12
2023-09-23T01:26:40.587Z,14.08
2023-09-23T01:32:16.299Z,13.95
2023-09-23T01:37:39.412Z,13.89
2023-09-23T01:43:01.733Z,13.94
2023-09-23T01:48:24.639Z,13.93
2023-09-23T01:53:47.090Z,13.91
2023-09-23T01:59:11.152Z,13.89
2023-09-23T02:04:35.384Z,13.87
2023-09-23T02:09:57.840Z,13.84
2023-09-23T02:15:20.365Z,13.87
2023-09-23T02:20:44.544Z,13.86
2023-09-23T02:26:08.295Z,13.84
2023-09-23T02:31:31.379Z,13.85
2023-09-23T02:36:54.452Z,13.90
2023-09-23T02:42:16.869Z,13.92
2023-09-23T02:47:39.450Z,13.89
2023-09-23T02:53:03.173Z,13.88
2023-09-23T02:58:25.867Z,13.82
2023-09-23T03:03:49.248Z,13.79
2023-09-23T03:09:12.526Z,13.70
2023-09-23T03:14:41.116Z,13.66
2023-09-23T03:20:08.065Z,13.64
2023-09-23T03:25:31.730Z,13.61
2023-09-23T03:30:56.075Z,13.57
2023-09-23T03:36:22.001Z,13.52
2023-09-23T03:41:48.059Z,13.43
2023-09-23T03:47:10.563Z,13.40
2023-09-23T03:52:35.179Z,13.34
2023-09-23T03:57:59.086Z,13.32
2023-09-23T04:03:21.699Z,13.24
2023-09-23T04:08:45.716Z,13.17
2023-09-23T04:14:08.625Z,13.12
2023-09-23T04:19:31.545Z,13.15
2023-09-23T04:24:55.101Z,13.10
2023-09-23T04:30:18.859Z,12.98
2023-09-23T04:35:41.894Z,12.96
2023-09-23T04:41:05.236Z,12.94
2023-09-23T04:46:28.869Z,12.89
2023-09-23T04:51:52.200Z,12.80
2023-09-23T04:57:16.098Z,12.78
2023-09-23T05:02:43.213Z,12.80
2023-09-23T05:08:06.806Z,12.79
2023-09-23T05:13:30.720Z,12.86
2023-09-23T05:18:54.973Z,12.93
2023-09-23T05:24:17.800Z,13.06
2023-09-23T05:29:40.101Z,13.09
2023-09-23T05:35:03.395Z,13.20
2023-09-23T05:40:27.880Z,13.33
2023-09-23T05:45:50.502Z,13.46
2023-09-23T05:51:17.587Z,13.51
2023-09-23T05:56:40.242Z,13.61
2023-09-23T06:02:04.694Z,13.70
2023-09-23T06:07:28.350Z,13.73
2023-09-23T06:12:51.278Z,13.80
2023-09-23T06:18:14.221Z,13.97
2023-09-23T06:23:37.673Z,14.02
2023-09-23T06:29:00.380Z,14.08
2023-09-23T06:34:23.020Z,14.30
2023-09-23T06:39:45.711Z,14.33
2023-09-23T06:45:09.790Z,14.46
2023-09-23T06:50:32.950Z,14.49
2023-09-23T06:55:55.901Z,14.47
2023-09-23T07:01:18.954Z,14.35
2023-09-23T07:06:44.270Z,14.50
2023-09-23T07:12:10.374Z,14.60
2023-09-23T07:17:34.619Z,14.70
2023-09-23T07:22:58.103Z,14.72
2023-09-23T07:28:20.824Z,15.01
2023-09-23T07:33:43.294Z,15.08
2023-09-23T07:39:05.840Z,15.09
2023-09-23T07:44:28.772Z,15.43
2023-09-23T07:49:52.111Z,15.84
2023-09-23T07:55:15.374Z,16.20
2023-09-23T08:00:38.118Z,16.32
2023-09-23T08:06:00.968Z,16.56
2023-09-23T08:11:23.514Z,16.66
2023-09-23T08:16:47.077Z,16.46
2023-09-23T08:22:09.460Z,16.39
2023-09-23T08:27:32.580Z,16.49
2023-09-23T08:32:56.624Z,16.50
2023-09-23T08:38:19.414Z,16.72
2023-09-23T08:43:43.760Z,16.93
2023-09-23T08:49:08.913Z,17.02
2023-09-23T08:54:33.669Z,17.13
2023-09-23T08:59:58.218Z,17.17
2023-09-23T09:05:22.353Z,17.17
2023-09-23T09:10:45.484Z,17.22
2023-09-23T09:16:09.763Z,17.30
2023-09-23T09:21:35.815Z,17.48
2023-09-23T09:26:58.890Z,17.73
2023-09-23T09:32:23.050Z,18.07
2023-09-23T09:37:55.286Z,18.17
2023-09-23T09:43:16.159Z,18.16
2023-09-23T09:48:39.452Z,18.39
2023-09-23T09:54:04.507Z,18.55
2023-09-23T09:59:44.929Z,18.67
2023-09-23T10:05:11.001Z,18.72
2023-09-23T10:10:37.482Z,18.65
2023-09-23T10:16:04.720Z,18.59
2023-09-23T10:21:39.909Z,18.66
2023-09-23T10:27:02.608Z,18.73
2023-09-23T10:32:32.446Z,18.63
2023-09-23T10:37:49.225Z,18.83
2023-09-23T10:43:13.673Z,18.86
2023-09-23T10:48:37.742Z,19.14
2023-09-23T10:54:02.061Z,19.43
2023-09-23T10:59:24.727Z,19.26
2023-09-23T11:04:50.018Z,19.01
2023-09-23T11:10:14.458Z,19.01
2023-09-23T11:15:37.623Z,19.16
2023-09-23T11:21:01.412Z,19.27
2023-09-23T11:26:25.916Z,19.75
2023-09-23T11:31:49.315Z,19.94
2023-09-23T11:37:12.095Z,19.99
2023-09-23T11:42:34.981Z,20.14
2023-09-23T11:47:58.528Z,19.91
2023-09-23T11:53:21.027Z,20.24
2023-09-23T11:58:48.922Z,20.52
2023-09-23T12:04:07.486Z,20.53
2023-09-23T12:09:29.966Z,20.60
2023-09-23T12:14:53.038Z,20.88
2023-09-23T12:20:16.483Z,20.84
2023-09-23T12:25:41.037Z,20.63
2023-09-23T12:31:03.434Z,20.08
2023-09-23T12:36:26.439Z,19.96
2023-09-23T12:41:49.027Z,20.10
2023-09-23T12:47:11.491Z,20.61
2023-09-23T12:52:34.432Z,20.97
2023-09-23T12:57:57.213Z,20.76
2023-09-23T13:03:19.623Z,20.08
2023-09-23T13:08:42.154Z,19.62
2023-09-23T13:14:07.142Z,19.29
2023-09-23T13:19:58.772Z,19.10
2023-09-23T13:25:21.788Z,18.96
2023-09-23T13:30:44.312Z,19.58
2023-09-23T13:36:07.300Z,19.33
2023-09-23T13:41:30.116Z,19.13
2023-09-23T13:46:53.473Z,18.80
2023-09-23T13:52:16.061Z,19.04
2023-09-23T13:57:38.516Z,18.86
2023-09-23T14:03:01.245Z,18.57
2023-09-23T14:08:23.901Z,18.51
2023-09-23T14:13:46.861Z,18.64
2023-09-23T14:19:09.588Z,18.64
2023-09-23T14:24:32.006Z,19.09
2023-09-23T14:29:55.066Z,19.27
2023-09-23T14:35:17.670Z,18.82
2023-09-23T14:40:40.111Z,18.48
2023-09-23T14:46:02.894Z,18.44
2023-09-23T14:52:02.533Z,18.28
2023-09-23T14:57:28.751Z,17.99
2023-09-23T15:02:51.557Z,17.73
2023-09-23T15:08:14.505Z,17.44
2023-09-23T15:13:37.763Z,17.31
2023-09-23T15:19:00.534Z,17.31
2023-09-23T15:24:23.666Z,17.23
2023-09-23T15:29:47.785Z,17.17
2023-09-23T15:35:12.894Z,17.10
2023-09-23T15:40:37.099Z,16.99
2023-09-23T15:46:02.672Z,16.92
2023-09-23T15:51:33.075Z,16.76
2023-09-23T15:56:58.573Z,16.59
2023-09-23T16:02:21.938Z,16.53
2023-09-23T16:13:26.808Z,16.39
2023-09-23T16:18:49.925Z,16.19
2023-09-23T16:24:12.798Z,16.18
2023-09-23T16:29:35.822Z,16.17
2023-09-23T16:34:58.982Z,16.03
2023-09-23T16:40:23.814Z,15.89
2023-09-23T16:45:46.947Z,15.70
2023-09-23T16:51:10.381Z,15.59
2023-09-23T16:56:33.361Z,15.51
2023-09-23T17:01:56.514Z,15.34
2023-09-23T17:11:51.062Z,15.24
2023-09-23T17:17:13.652Z,14.98
2023-09-23T17:22:36.788Z,14.81
2023-09-23T17:27:59.868Z,14.72
2023-09-23T17:33:22.527Z,14.57
2023-09-23T17:38:46.480Z,14.37
2023-09-23T17:44:10.989Z,14.24
2023-09-23T17:49:33.435Z,14.15
2023-09-23T17:54:58.025Z,14.08
2023-09-23T18:00:21.527Z,14.04
2023-09-23T18:05:46.270Z,13.98
2023-09-23T18:11:15.042Z,13.93
2023-09-23T18:16:38.319Z,13.82
2023-09-23T18:22:01.579Z,13.67
2023-09-23T18:27:25.183Z,13.52
2023-09-23T18:32:49.610Z,13.32
2023-09-23T18:38:13.800Z,13.17
2023-09-23T18:43:37.369Z,13.11
2023-09-23T18:49:00.184Z,13.06
2023-09-23T18:54:23.669Z,12.96
2023-09-23T18:59:47.176Z,12.88
2023-09-23T19:05:10.673Z,12.87
2023-09-23T19:10:33.944Z,12.84
2023-09-23T19:16:02.612Z,12.75
2023-09-23T19:21:25.646Z,12.69
2023-09-23T19:26:57.426Z,12.66
2023-09-23T19:32:20.253Z,12.57
2023-09-23T19:37:44.617Z,12.53
2023-09-23T19:43:07.636Z,12.48
2023-09-23T19:48:30.978Z,12.48
2023-09-23T19:53:54.525Z,12.44
2023-09-23T19:59:17.308Z,12.41
2023-09-23T20:04:42.485Z,12.35
2023-09-23T20:10:10.050Z,12.26
2023-09-23T20:15:33.041Z,12.15
2023-09-23T20:20:56.583Z,12.04
2023-09-23T20:26:19.357Z,11.92
2023-09-23T20:31:43.993Z,11.86
2023-09-23T20:37:08.593Z,11.76
2023-09-23T20:42:31.241Z,11.71
2023-09-23T20:47:54.779Z,11.64
2023-09-23T20:53:18.231Z,11.58
2023-09-23T20:58:41.061Z,11.51
2023-09-23T21:04:04.161Z,11.45
2023-09-23T21:09:26.632Z,11.39
2023-09-23T21:14:49.126Z,11.32
2023-09-23T21:20:13.475Z,11.25
2023-09-23T21:25:38.839Z,11.22
2023-09-23T21:31:01.139Z,11.23
2023-09-23T21:36:23.590Z,11.28
2023-09-23T21:41:46.439Z,11.30
2023-09-23T21:47:10.210Z,11.31
2023-09-23T21:52:32.764Z,11.30
2023-09-23T21:57:55.215Z,11.26
2023-09-23T22:03:18.603Z,11.22
2023-09-23T22:08:42.570Z,11.21
2023-09-23T22:14:06.801Z,11.18
2023-09-23T22:19:29.467Z,11.14
2023-09-23T22:24:51.820Z,11.11
2023-09-23T22:30:16.293Z,11.11
2023-09-23T22:35:40.179Z,11.08
2023-09-23T22:41:03.113Z,11.06
2023-09-23T22:46:25.566Z,10.97
2023-09-23T22:51:47.948Z,10.88
2023-09-23T22:57:12.146Z,10.86
2023-09-23T23:02:34.573Z,10.90
2023-09-23T23:08:05.041Z,10.82
2023-09-23T23:13:27.333Z,10.79
2023-09-23T23:18:50.593Z,10.73
2023-09-23T23:24:13.933Z,10.77
2023-09-23T23:29:36.331Z,10.75
2023-09-23T23:35:00.003Z,10.76
2023-09-23T23:40:24.729Z,10.71
2023-09-23T23:45:47.275Z,10.66
2023-09-23T23:51:21.259Z,10.60
2023-09-23T23:56:44.142Z,10.58
